sensor_id;sensor_type;location;lat;lon;timestamp;P1;durP1;ratioP1;P2;durP2;ratioP2
8574;SDS011;4325;42.520;27.448;2022-08-18T00:00:06;9.00;;;8.10;;
8574;SDS011;4325;42.520;27.448;2022-08-18T00:02:36;9.40;;;8.33;;
8574;SDS011;4325;42.520;27.448;2022-08-18T00:05:05;8.40;;;7.50;;
8574;SDS011;4325;42.520;27.448;2022-08-18T00:07:32;8.47;;;7.67;;
8574;SDS011;4325;42.520;27.448;2022-08-18T00:09:59;14.53;;;7.60;;
8574;SDS011;4325;42.520;27.448;2022-08-18T00:12:30;7.60;;;6.90;;
8574;SDS011;4325;42.520;27.448;2022-08-18T00:15:02;8.57;;;7.67;;
8574;SDS011;4325;42.520;27.448;2022-08-18T00:17:30;7.47;;;6.73;;
8574;SDS011;4325;42.520;27.448;2022-08-18T00:19:58;10.03;;;7.17;;
8574;SDS011;4325;42.520;27.448;2022-08-18T00:22:25;8.67;;;6.40;;
8574;SDS011;4325;42.520;27.448;2022-08-18T00:24:53;7.07;;;6.43;;
8574;SDS011;4325;42.520;27.448;2022-08-18T00:27:22;6.43;;;5.83;;
8574;SDS011;4325;42.520;27.448;2022-08-18T00:29:51;6.00;;;5.50;;
8574;SDS011;4325;42.520;27.448;2022-08-18T00:32:21;8.23;;;7.03;;
8574;SDS011;4325;42.520;27.448;2022-08-18T00:34:49;13.00;;;6.60;;
8574;SDS011;4325;42.520;27.448;2022-08-18T00:37:16;7.93;;;6.60;;
8574;SDS011;4325;42.520;27.448;2022-08-18T00:39:43;7.27;;;6.60;;
8574;SDS011;4325;42.520;27.448;2022-08-18T00:42:11;7.10;;;6.40;;
8574;SDS011;4325;42.520;27.448;2022-08-18T00:47:27;10.10;;;6.70;;
8574;SDS011;4325;42.520;27.448;2022-08-18T00:49:55;6.60;;;6.00;;
8574;SDS011;4325;42.520;27.448;2022-08-18T00:52:22;8.50;;;7.53;;
8574;SDS011;4325;42.520;27.448;2022-08-18T00:54:51;7.93;;;6.83;;
8574;SDS011;4325;42.520;27.448;2022-08-18T00:57:20;6.90;;;6.13;;
8574;SDS011;4325;42.520;27.448;2022-08-18T00:59:52;8.33;;;6.13;;
8574;SDS011;4325;42.520;27.448;2022-08-18T01:02:23;7.77;;;6.47;;
8574;SDS011;4325;42.520;27.448;2022-08-18T01:04:58;7.13;;;6.43;;
8574;SDS011;4325;42.520;27.448;2022-08-18T01:07:31;9.67;;;5.63;;
8574;SDS011;4325;42.520;27.448;2022-08-18T01:10:01;8.73;;;6.30;;
8574;SDS011;4325;42.520;27.448;2022-08-18T01:12:30;6.57;;;6.03;;
8574;SDS011;4325;42.520;27.448;2022-08-18T01:14:57;6.33;;;5.63;;
8574;SDS011;4325;42.520;27.448;2022-08-18T01:17:25;7.17;;;5.93;;
8574;SDS011;4325;42.520;27.448;2022-08-18T01:20:12;8.53;;;6.50;;
8574;SDS011;4325;42.520;27.448;2022-08-18T01:23:07;6.87;;;6.17;;
8574;SDS011;4325;42.520;27.448;2022-08-18T01:25:38;6.67;;;6.07;;
8574;SDS011;4325;42.520;27.448;2022-08-18T01:28:23;10.33;;;5.53;;
8574;SDS011;4325;42.520;27.448;2022-08-18T01:30:52;7.00;;;6.07;;
8574;SDS011;4325;42.520;27.448;2022-08-18T01:33:22;10.73;;;6.83;;
8574;SDS011;4325;42.520;27.448;2022-08-18T01:35:56;5.83;;;5.23;;
8574;SDS011;4325;42.520;27.448;2022-08-18T01:38:26;6.20;;;5.60;;
8574;SDS011;4325;42.520;27.448;2022-08-18T01:40:56;6.43;;;5.63;;
8574;SDS011;4325;42.520;27.448;2022-08-18T01:43:23;11.70;;;5.70;;
8574;SDS011;4325;42.520;27.448;2022-08-18T01:45:50;7.77;;;5.90;;
8574;SDS011;4325;42.520;27.448;2022-08-18T01:48:17;7.00;;;5.47;;
8574;SDS011;4325;42.520;27.448;2022-08-18T01:50:44;7.53;;;6.20;;
8574;SDS011;4325;42.520;27.448;2022-08-18T01:53:13;7.47;;;6.63;;
8574;SDS011;4325;42.520;27.448;2022-08-18T01:55:42;10.23;;;6.27;;
8574;SDS011;4325;42.520;27.448;2022-08-18T01:58:10;9.13;;;6.00;;
8574;SDS011;4325;42.520;27.448;2022-08-18T02:00:37;6.80;;;6.10;;
8574;SDS011;4325;42.520;27.448;2022-08-18T02:03:06;7.43;;;6.20;;
8574;SDS011;4325;42.520;27.448;2022-08-18T02:05:38;7.00;;;5.90;;
8574;SDS011;4325;42.520;27.448;2022-08-18T02:08:08;7.83;;;6.50;;
8574;SDS011;4325;42.520;27.448;2022-08-18T02:10:36;6.50;;;5.83;;
8574;SDS011;4325;42.520;27.448;2022-08-18T02:13:05;10.80;;;6.00;;
8574;SDS011;4325;42.520;27.448;2022-08-18T02:15:32;10.07;;;5.80;;
8574;SDS011;4325;42.520;27.448;2022-08-18T02:17:59;6.90;;;6.30;;
8574;SDS011;4325;42.520;27.448;2022-08-18T02:20:26;8.43;;;6.70;;
8574;SDS011;4325;42.520;27.448;2022-08-18T02:22:53;9.07;;;6.47;;
8574;SDS011;4325;42.520;27.448;2022-08-18T02:25:22;8.53;;;6.13;;
8574;SDS011;4325;42.520;27.448;2022-08-18T02:27:50;7.37;;;6.40;;
8574;SDS011;4325;42.520;27.448;2022-08-18T02:30:18;6.90;;;6.30;;
8574;SDS011;4325;42.520;27.448;2022-08-18T02:32:46;8.07;;;6.27;;
8574;SDS011;4325;42.520;27.448;2022-08-18T02:35:13;7.60;;;6.07;;
8574;SDS011;4325;42.520;27.448;2022-08-18T02:37:41;8.87;;;6.90;;
8574;SDS011;4325;42.520;27.448;2022-08-18T02:40:11;8.40;;;7.07;;
8574;SDS011;4325;42.520;27.448;2022-08-18T02:42:39;9.27;;;6.53;;
8574;SDS011;4325;42.520;27.448;2022-08-18T02:45:07;12.40;;;6.40;;
8574;SDS011;4325;42.520;27.448;2022-08-18T02:47:36;7.30;;;6.03;;
8574;SDS011;4325;42.520;27.448;2022-08-18T02:50:04;7.63;;;5.83;;
8574;SDS011;4325;42.520;27.448;2022-08-18T02:52:31;7.00;;;6.03;;
8574;SDS011;4325;42.520;27.448;2022-08-18T02:55:00;8.47;;;5.93;;
8574;SDS011;4325;42.520;27.448;2022-08-18T02:57:27;6.97;;;6.17;;
8574;SDS011;4325;42.520;27.448;2022-08-18T02:59:55;7.00;;;5.83;;
8574;SDS011;4325;42.520;27.448;2022-08-18T03:02:22;7.30;;;5.13;;
8574;SDS011;4325;42.520;27.448;2022-08-18T03:04:51;10.83;;;5.80;;
8574;SDS011;4325;42.520;27.448;2022-08-18T03:07:18;6.93;;;5.77;;
8574;SDS011;4325;42.520;27.448;2022-08-18T03:09:44;6.57;;;5.97;;
8574;SDS011;4325;42.520;27.448;2022-08-18T03:12:11;7.03;;;6.13;;
8574;SDS011;4325;42.520;27.448;2022-08-18T03:14:38;6.83;;;6.10;;
8574;SDS011;4325;42.520;27.448;2022-08-18T03:17:06;7.20;;;5.63;;
8574;SDS011;4325;42.520;27.448;2022-08-18T03:19:33;6.13;;;5.53;;
8574;SDS011;4325;42.520;27.448;2022-08-18T03:22:03;7.70;;;6.10;;
8574;SDS011;4325;42.520;27.448;2022-08-18T03:24:33;10.67;;;6.43;;
8574;SDS011;4325;42.520;27.448;2022-08-18T03:27:02;6.83;;;6.23;;
8574;SDS011;4325;42.520;27.448;2022-08-18T03:29:31;6.67;;;6.17;;
8574;SDS011;4325;42.520;27.448;2022-08-18T03:31:59;6.77;;;6.10;;
8574;SDS011;4325;42.520;27.448;2022-08-18T03:34:26;7.03;;;6.10;;
8574;SDS011;4325;42.520;27.448;2022-08-18T03:36:53;6.77;;;5.93;;
8574;SDS011;4325;42.520;27.448;2022-08-18T03:39:21;6.90;;;6.30;;
8574;SDS011;4325;42.520;27.448;2022-08-18T03:41:49;11.20;;;5.80;;
8574;SDS011;4325;42.520;27.448;2022-08-18T03:44:18;12.20;;;5.97;;
8574;SDS011;4325;42.520;27.448;2022-08-18T03:46:46;6.43;;;5.90;;
8574;SDS011;4325;42.520;27.448;2022-08-18T03:49:14;9.00;;;5.70;;
8574;SDS011;4325;42.520;27.448;2022-08-18T03:51:43;8.20;;;6.40;;
8574;SDS011;4325;42.520;27.448;2022-08-18T03:54:11;6.00;;;5.50;;
8574;SDS011;4325;42.520;27.448;2022-08-18T03:56:42;7.33;;;6.07;;
8574;SDS011;4325;42.520;27.448;2022-08-18T03:59:11;8.97;;;7.23;;
8574;SDS011;4325;42.520;27.448;2022-08-18T04:01:41;8.10;;;6.43;;
8574;SDS011;4325;42.520;27.448;2022-08-18T04:04:09;9.30;;;6.87;;
8574;SDS011;4325;42.520;27.448;2022-08-18T04:06:40;6.90;;;6.30;;
8574;SDS011;4325;42.520;27.448;2022-08-18T04:09:10;6.23;;;5.73;;
8574;SDS011;4325;42.520;27.448;2022-08-18T04:11:40;10.20;;;5.93;;
8574;SDS011;4325;42.520;27.448;2022-08-18T04:14:10;7.03;;;6.33;;
8574;SDS011;4325;42.520;27.448;2022-08-18T04:16:37;6.67;;;6.07;;
8574;SDS011;4325;42.520;27.448;2022-08-18T04:19:05;7.23;;;6.30;;
8574;SDS011;4325;42.520;27.448;2022-08-18T04:21:33;6.70;;;6.10;;
8574;SDS011;4325;42.520;27.448;2022-08-18T04:24:01;8.20;;;6.77;;
8574;SDS011;4325;42.520;27.448;2022-08-18T04:26:30;7.43;;;6.73;;
8574;SDS011;4325;42.520;27.448;2022-08-18T04:28:59;9.70;;;5.73;;
8574;SDS011;4325;42.520;27.448;2022-08-18T04:31:27;8.60;;;5.67;;
8574;SDS011;4325;42.520;27.448;2022-08-18T04:33:56;6.50;;;5.87;;
8574;SDS011;4325;42.520;27.448;2022-08-18T04:36:24;7.47;;;5.93;;
8574;SDS011;4325;42.520;27.448;2022-08-18T04:38:53;6.93;;;6.27;;
8574;SDS011;4325;42.520;27.448;2022-08-18T04:41:20;7.83;;;6.20;;
8574;SDS011;4325;42.520;27.448;2022-08-18T04:43:51;8.40;;;5.83;;
8574;SDS011;4325;42.520;27.448;2022-08-18T04:46:19;7.10;;;6.10;;
8574;SDS011;4325;42.520;27.448;2022-08-18T04:48:46;12.00;;;6.10;;
8574;SDS011;4325;42.520;27.448;2022-08-18T04:51:14;6.63;;;6.03;;
8574;SDS011;4325;42.520;27.448;2022-08-18T04:53:42;7.93;;;6.13;;
8574;SDS011;4325;42.520;27.448;2022-08-18T04:56:12;10.07;;;6.20;;
8574;SDS011;4325;42.520;27.448;2022-08-18T04:58:41;16.47;;;6.83;;
8574;SDS011;4325;42.520;27.448;2022-08-18T05:01:09;7.20;;;6.57;;
8574;SDS011;4325;42.520;27.448;2022-08-18T05:03:37;10.83;;;6.23;;
8574;SDS011;4325;42.520;27.448;2022-08-18T05:06:06;8.53;;;6.13;;
8574;SDS011;4325;42.520;27.448;2022-08-18T05:08:33;11.00;;;6.40;;
8574;SDS011;4325;42.520;27.448;2022-08-18T05:11:00;9.33;;;6.10;;
8574;SDS011;4325;42.520;27.448;2022-08-18T05:13:27;10.03;;;6.67;;
8574;SDS011;4325;42.520;27.448;2022-08-18T05:15:55;10.20;;;6.70;;
8574;SDS011;4325;42.520;27.448;2022-08-18T05:18:27;10.20;;;6.90;;
8574;SDS011;4325;42.520;27.448;2022-08-18T05:20:56;9.67;;;7.10;;
8574;SDS011;4325;42.520;27.448;2022-08-18T05:23:24;8.23;;;7.40;;
8574;SDS011;4325;42.520;27.448;2022-08-18T05:25:55;7.53;;;6.77;;
8574;SDS011;4325;42.520;27.448;2022-08-18T05:28:23;14.20;;;6.20;;
8574;SDS011;4325;42.520;27.448;2022-08-18T05:30:50;7.13;;;6.20;;
8574;SDS011;4325;42.520;27.448;2022-08-18T05:33:17;11.10;;;6.77;;
8574;SDS011;4325;42.520;27.448;2022-08-18T05:35:45;7.53;;;6.30;;
8574;SDS011;4325;42.520;27.448;2022-08-18T05:38:19;11.90;;;6.80;;
8574;SDS011;4325;42.520;27.448;2022-08-18T05:41:01;16.30;;;6.67;;
8574;SDS011;4325;42.520;27.448;2022-08-18T05:43:31;12.50;;;6.60;;
8574;SDS011;4325;42.520;27.448;2022-08-18T05:45:59;11.63;;;6.63;;
8574;SDS011;4325;42.520;27.448;2022-08-18T05:48:29;16.23;;;6.97;;
8574;SDS011;4325;42.520;27.448;2022-08-18T05:50:57;15.13;;;6.40;;
8574;SDS011;4325;42.520;27.448;2022-08-18T05:53:28;11.03;;;7.03;;
8574;SDS011;4325;42.520;27.448;2022-08-18T05:56:09;13.67;;;7.13;;
8574;SDS011;4325;42.520;27.448;2022-08-18T05:58:55;10.63;;;6.50;;
8574;SDS011;4325;42.520;27.448;2022-08-18T06:01:26;17.07;;;6.53;;
8574;SDS011;4325;42.520;27.448;2022-08-18T06:04:01;15.17;;;7.13;;
8574;SDS011;4325;42.520;27.448;2022-08-18T06:06:32;6.60;;;6.00;;
8574;SDS011;4325;42.520;27.448;2022-08-18T06:09:04;14.93;;;7.90;;
8574;SDS011;4325;42.520;27.448;2022-08-18T06:11:38;14.07;;;6.07;;
8574;SDS011;4325;42.520;27.448;2022-08-18T06:14:05;7.50;;;6.47;;
8574;SDS011;4325;42.520;27.448;2022-08-18T06:16:36;8.87;;;6.53;;
8574;SDS011;4325;42.520;27.448;2022-08-18T06:19:18;9.23;;;6.87;;
8574;SDS011;4325;42.520;27.448;2022-08-18T06:22:02;7.50;;;6.80;;
8574;SDS011;4325;42.520;27.448;2022-08-18T06:24:43;11.17;;;6.80;;
8574;SDS011;4325;42.520;27.448;2022-08-18T06:27:19;7.00;;;6.00;;
8574;SDS011;4325;42.520;27.448;2022-08-18T06:29:59;19.73;;;6.03;;
8574;SDS011;4325;42.520;27.448;2022-08-18T06:32:35;6.30;;;5.70;;
8574;SDS011;4325;42.520;27.448;2022-08-18T06:35:18;8.93;;;6.33;;
8574;SDS011;4325;42.520;27.448;2022-08-18T06:37:59;10.07;;;5.93;;
8574;SDS011;4325;42.520;27.448;2022-08-18T06:41:00;6.67;;;5.97;;
8574;SDS011;4325;42.520;27.448;2022-08-18T06:43:28;9.77;;;5.70;;
8574;SDS011;4325;42.520;27.448;2022-08-18T06:45:58;6.07;;;5.57;;
8574;SDS011;4325;42.520;27.448;2022-08-18T06:48:28;10.17;;;6.13;;
8574;SDS011;4325;42.520;27.448;2022-08-18T06:51:02;13.60;;;6.30;;
8574;SDS011;4325;42.520;27.448;2022-08-18T06:56:25;6.60;;;5.93;;
8574;SDS011;4325;42.520;27.448;2022-08-18T06:59:12;15.60;;;6.37;;
8574;SDS011;4325;42.520;27.448;2022-08-18T07:01:40;13.27;;;7.47;;
8574;SDS011;4325;42.520;27.448;2022-08-18T07:04:08;8.53;;;6.37;;
8574;SDS011;4325;42.520;27.448;2022-08-18T07:06:35;5.87;;;5.37;;
8574;SDS011;4325;42.520;27.448;2022-08-18T07:09:19;11.83;;;6.20;;
8574;SDS011;4325;42.520;27.448;2022-08-18T07:14:42;8.80;;;6.37;;
8574;SDS011;4325;42.520;27.448;2022-08-18T07:17:11;9.30;;;6.47;;
8574;SDS011;4325;42.520;27.448;2022-08-18T07:19:39;8.90;;;6.23;;
8574;SDS011;4325;42.520;27.448;2022-08-18T07:22:07;10.13;;;6.43;;
8574;SDS011;4325;42.520;27.448;2022-08-18T07:24:38;7.17;;;6.03;;
8574;SDS011;4325;42.520;27.448;2022-08-18T07:27:10;9.67;;;6.90;;
8574;SDS011;4325;42.520;27.448;2022-08-18T07:29:39;13.30;;;7.23;;
8574;SDS011;4325;42.520;27.448;2022-08-18T07:32:12;10.73;;;7.13;;
8574;SDS011;4325;42.520;27.448;2022-08-18T07:34:42;8.37;;;7.57;;
8574;SDS011;4325;42.520;27.448;2022-08-18T07:37:14;10.70;;;6.93;;
8574;SDS011;4325;42.520;27.448;2022-08-18T07:39:46;8.40;;;5.67;;
8574;SDS011;4325;42.520;27.448;2022-08-18T07:42:21;7.17;;;6.47;;
8574;SDS011;4325;42.520;27.448;2022-08-18T07:45:05;16.57;;;6.73;;
8574;SDS011;4325;42.520;27.448;2022-08-18T07:47:40;9.77;;;8.00;;
8574;SDS011;4325;42.520;27.448;2022-08-18T07:50:15;7.57;;;6.43;;
8574;SDS011;4325;42.520;27.448;2022-08-18T07:52:42;15.77;;;6.73;;
8574;SDS011;4325;42.520;27.448;2022-08-18T07:55:26;6.67;;;5.70;;
8574;SDS011;4325;42.520;27.448;2022-08-18T07:57:57;11.40;;;6.80;;
8574;SDS011;4325;42.520;27.448;2022-08-18T08:00:30;20.13;;;7.07;;
8574;SDS011;4325;42.520;27.448;2022-08-18T08:03:05;21.90;;;7.50;;
8574;SDS011;4325;42.520;27.448;2022-08-18T08:05:49;23.53;;;6.97;;
8574;SDS011;4325;42.520;27.448;2022-08-18T08:08:22;19.10;;;6.50;;
8574;SDS011;4325;42.520;27.448;2022-08-18T08:10:58;20.27;;;6.80;;
8574;SDS011;4325;42.520;27.448;2022-08-18T08:13:36;10.07;;;5.77;;
8574;SDS011;4325;42.520;27.448;2022-08-18T08:16:17;7.97;;;6.27;;
8574;SDS011;4325;42.520;27.448;2022-08-18T08:18:53;12.40;;;6.13;;
8574;SDS011;4325;42.520;27.448;2022-08-18T08:21:29;10.30;;;6.13;;
8574;SDS011;4325;42.520;27.448;2022-08-18T08:24:01;6.63;;;6.03;;
8574;SDS011;4325;42.520;27.448;2022-08-18T08:26:40;8.93;;;5.73;;
8574;SDS011;4325;42.520;27.448;2022-08-18T08:29:20;10.83;;;5.33;;
8574;SDS011;4325;42.520;27.448;2022-08-18T08:32:00;8.90;;;5.50;;
8574;SDS011;4325;42.520;27.448;2022-08-18T08:34:32;7.82;;;5.15;;
8574;SDS011;4325;42.520;27.448;2022-08-18T08:37:05;9.07;;;5.43;;
8574;SDS011;4325;42.520;27.448;2022-08-18T08:39:35;9.88;;;5.30;;
8574;SDS011;4325;42.520;27.448;2022-08-18T08:42:09;5.95;;;5.32;;
8574;SDS011;4325;42.520;27.448;2022-08-18T08:44:44;6.07;;;4.88;;
8574;SDS011;4325;42.520;27.448;2022-08-18T08:47:16;6.93;;;5.28;;
8574;SDS011;4325;42.520;27.448;2022-08-18T08:49:48;9.85;;;4.90;;
8574;SDS011;4325;42.520;27.448;2022-08-18T08:52:18;8.77;;;5.65;;
8574;SDS011;4325;42.520;27.448;2022-08-18T08:54:50;10.25;;;5.43;;
8574;SDS011;4325;42.520;27.448;2022-08-18T08:57:20;11.38;;;5.28;;
8574;SDS011;4325;42.520;27.448;2022-08-18T08:59:53;5.15;;;4.65;;
8574;SDS011;4325;42.520;27.448;2022-08-18T09:02:44;9.57;;;5.15;;
8574;SDS011;4325;42.520;27.448;2022-08-18T09:05:24;6.18;;;4.95;;
8574;SDS011;4325;42.520;27.448;2022-08-18T09:08:01;4.97;;;4.45;;
8574;SDS011;4325;42.520;27.448;2022-08-18T09:10:54;8.18;;;5.20;;
8574;SDS011;4325;42.520;27.448;2022-08-18T09:13:46;8.38;;;4.78;;
8574;SDS011;4325;42.520;27.448;2022-08-18T09:16:36;6.28;;;4.20;;
8574;SDS011;4325;42.520;27.448;2022-08-18T09:19:15;6.57;;;4.55;;
8574;SDS011;4325;42.520;27.448;2022-08-18T09:22:08;5.28;;;4.20;;
8574;SDS011;4325;42.520;27.448;2022-08-18T09:24:45;14.00;;;4.38;;
8574;SDS011;4325;42.520;27.448;2022-08-18T09:27:15;7.95;;;4.05;;
8574;SDS011;4325;42.520;27.448;2022-08-18T09:29:57;4.38;;;3.97;;
8574;SDS011;4325;42.520;27.448;2022-08-18T09:32:31;6.13;;;3.90;;
8574;SDS011;4325;42.520;27.448;2022-08-18T09:35:29;9.32;;;4.85;;
8574;SDS011;4325;42.520;27.448;2022-08-18T09:38:08;17.25;;;4.93;;
8574;SDS011;4325;42.520;27.448;2022-08-18T09:40:58;15.18;;;5.05;;
8574;SDS011;4325;42.520;27.448;2022-08-18T09:43:58;5.55;;;4.47;;
8574;SDS011;4325;42.520;27.448;2022-08-18T09:46:48;5.00;;;4.50;;
8574;SDS011;4325;42.520;27.448;2022-08-18T09:58:26;7.53;;;4.78;;
8574;SDS011;4325;42.520;27.448;2022-08-18T10:01:19;7.28;;;4.75;;
8574;SDS011;4325;42.520;27.448;2022-08-18T10:06:55;8.68;;;5.30;;
8574;SDS011;4325;42.520;27.448;2022-08-18T10:09:43;10.40;;;5.13;;
8574;SDS011;4325;42.520;27.448;2022-08-18T10:12:27;5.97;;;5.30;;
8574;SDS011;4325;42.520;27.448;2022-08-18T10:15:20;5.22;;;4.72;;
8574;SDS011;4325;42.520;27.448;2022-08-18T10:18:01;7.03;;;4.97;;
8574;SDS011;4325;42.520;27.448;2022-08-18T10:20:49;6.40;;;4.63;;
8574;SDS011;4325;42.520;27.448;2022-08-18T10:38:11;7.07;;;4.93;;
8574;SDS011;4325;42.520;27.448;2022-08-18T10:40:42;6.15;;;4.60;;
8574;SDS011;4325;42.520;27.448;2022-08-18T10:43:25;7.95;;;4.78;;
8574;SDS011;4325;42.520;27.448;2022-08-18T10:45:57;7.68;;;4.63;;
8574;SDS011;4325;42.520;27.448;2022-08-18T10:48:25;9.90;;;4.63;;
8574;SDS011;4325;42.520;27.448;2022-08-18T10:51:02;5.90;;;4.57;;
8574;SDS011;4325;42.520;27.448;2022-08-18T10:53:39;8.52;;;4.95;;
8574;SDS011;4325;42.520;27.448;2022-08-18T10:56:18;5.20;;;4.70;;
8574;SDS011;4325;42.520;27.448;2022-08-18T10:59:02;8.60;;;4.43;;
8574;SDS011;4325;42.520;27.448;2022-08-18T11:01:44;7.45;;;4.90;;
8574;SDS011;4325;42.520;27.448;2022-08-18T11:04:24;6.35;;;4.97;;
8574;SDS011;4325;42.520;27.448;2022-08-18T11:06:59;9.93;;;4.95;;
8574;SDS011;4325;42.520;27.448;2022-08-18T11:09:29;6.25;;;5.05;;
8574;SDS011;4325;42.520;27.448;2022-08-18T11:12:00;10.35;;;5.18;;
8574;SDS011;4325;42.520;27.448;2022-08-18T11:14:50;5.10;;;4.60;;
8574;SDS011;4325;42.520;27.448;2022-08-18T11:17:37;5.20;;;4.70;;
8574;SDS011;4325;42.520;27.448;2022-08-18T11:20:12;8.18;;;4.70;;
8574;SDS011;4325;42.520;27.448;2022-08-18T11:22:48;6.60;;;5.30;;
8574;SDS011;4325;42.520;27.448;2022-08-18T11:25:21;6.38;;;5.18;;
8574;SDS011;4325;42.520;27.448;2022-08-18T11:27:52;8.20;;;5.45;;
8574;SDS011;4325;42.520;27.448;2022-08-18T11:30:20;9.13;;;5.10;;
8574;SDS011;4325;42.520;27.448;2022-08-18T11:32:51;7.60;;;5.43;;
8574;SDS011;4325;42.520;27.448;2022-08-18T11:35:20;6.63;;;5.00;;
8574;SDS011;4325;42.520;27.448;2022-08-18T11:37:52;9.43;;;5.30;;
8574;SDS011;4325;42.520;27.448;2022-08-18T11:40:25;10.32;;;4.90;;
8574;SDS011;4325;42.520;27.448;2022-08-18T11:43:00;5.75;;;4.97;;
8574;SDS011;4325;42.520;27.448;2022-08-18T11:45:32;7.57;;;5.25;;
8574;SDS011;4325;42.520;27.448;2022-08-18T11:48:08;7.63;;;5.45;;
8574;SDS011;4325;42.520;27.448;2022-08-18T11:50:46;9.00;;;5.05;;
8574;SDS011;4325;42.520;27.448;2022-08-18T11:53:20;6.22;;;5.40;;
8574;SDS011;4325;42.520;27.448;2022-08-18T11:58:43;9.15;;;5.70;;
8574;SDS011;4325;42.520;27.448;2022-08-18T12:01:26;6.55;;;5.22;;
8574;SDS011;4325;42.520;27.448;2022-08-18T12:03:56;7.30;;;5.30;;
8574;SDS011;4325;42.520;27.448;2022-08-18T12:06:25;6.03;;;4.85;;
8574;SDS011;4325;42.520;27.448;2022-08-18T12:08:56;6.70;;;5.10;;
8574;SDS011;4325;42.520;27.448;2022-08-18T12:11:27;7.90;;;4.82;;
8574;SDS011;4325;42.520;27.448;2022-08-18T12:13:59;6.45;;;4.90;;
8574;SDS011;4325;42.520;27.448;2022-08-18T12:16:33;7.70;;;5.07;;
8574;SDS011;4325;42.520;27.448;2022-08-18T12:19:02;7.85;;;4.75;;
8574;SDS011;4325;42.520;27.448;2022-08-18T12:21:30;9.30;;;4.70;;
8574;SDS011;4325;42.520;27.448;2022-08-18T12:23:57;8.75;;;5.13;;
8574;SDS011;4325;42.520;27.448;2022-08-18T12:26:24;5.57;;;4.88;;
8574;SDS011;4325;42.520;27.448;2022-08-18T12:28:51;6.05;;;5.47;;
8574;SDS011;4325;42.520;27.448;2022-08-18T12:31:19;7.55;;;5.90;;
8574;SDS011;4325;42.520;27.448;2022-08-18T12:33:46;6.30;;;4.75;;
8574;SDS011;4325;42.520;27.448;2022-08-18T12:36:13;13.95;;;5.43;;
8574;SDS011;4325;42.520;27.448;2022-08-18T12:38:40;7.20;;;5.18;;
8574;SDS011;4325;42.520;27.448;2022-08-18T12:41:10;15.20;;;5.53;;
8574;SDS011;4325;42.520;27.448;2022-08-18T12:43:39;7.07;;;4.80;;
8574;SDS011;4325;42.520;27.448;2022-08-18T12:46:06;6.72;;;5.18;;
8574;SDS011;4325;42.520;27.448;2022-08-18T12:48:35;11.43;;;5.82;;
8574;SDS011;4325;42.520;27.448;2022-08-18T12:51:03;8.88;;;5.75;;
8574;SDS011;4325;42.520;27.448;2022-08-18T12:53:30;7.05;;;5.72;;
8574;SDS011;4325;42.520;27.448;2022-08-18T12:55:58;12.13;;;6.25;;
8574;SDS011;4325;42.520;27.448;2022-08-18T12:58:25;10.75;;;6.20;;
8574;SDS011;4325;42.520;27.448;2022-08-18T13:00:53;9.77;;;7.35;;
8574;SDS011;4325;42.520;27.448;2022-08-18T13:03:20;12.17;;;6.77;;
8574;SDS011;4325;42.520;27.448;2022-08-18T13:05:48;11.67;;;7.47;;
8574;SDS011;4325;42.520;27.448;2022-08-18T13:08:17;13.30;;;7.93;;
8574;SDS011;4325;42.520;27.448;2022-08-18T13:10:45;13.40;;;8.03;;
8574;SDS011;4325;42.520;27.448;2022-08-18T13:13:13;13.87;;;7.50;;
8574;SDS011;4325;42.520;27.448;2022-08-18T13:15:41;12.90;;;7.40;;
8574;SDS011;4325;42.520;27.448;2022-08-18T13:18:08;12.93;;;7.27;;
8574;SDS011;4325;42.520;27.448;2022-08-18T13:20:35;11.90;;;7.20;;
8574;SDS011;4325;42.520;27.448;2022-08-18T13:23:03;11.67;;;6.10;;
8574;SDS011;4325;42.520;27.448;2022-08-18T13:25:30;9.50;;;6.50;;
8574;SDS011;4325;42.520;27.448;2022-08-18T13:27:57;9.68;;;5.97;;
8574;SDS011;4325;42.520;27.448;2022-08-18T13:30:25;19.35;;;6.68;;
8574;SDS011;4325;42.520;27.448;2022-08-18T13:32:52;10.65;;;5.22;;
8574;SDS011;4325;42.520;27.448;2022-08-18T13:35:19;5.57;;;4.90;;
8574;SDS011;4325;42.520;27.448;2022-08-18T13:37:46;7.85;;;5.40;;
8574;SDS011;4325;42.520;27.448;2022-08-18T13:40:14;8.77;;;5.55;;
8574;SDS011;4325;42.520;27.448;2022-08-18T13:42:44;9.77;;;6.03;;
8574;SDS011;4325;42.520;27.448;2022-08-18T13:45:13;6.03;;;5.40;;
8574;SDS011;4325;42.520;27.448;2022-08-18T13:47:42;10.90;;;5.20;;
8574;SDS011;4325;42.520;27.448;2022-08-18T13:50:10;7.43;;;5.47;;
8574;SDS011;4325;42.520;27.448;2022-08-18T13:52:37;8.95;;;5.32;;
8574;SDS011;4325;42.520;27.448;2022-08-18T13:55:07;8.20;;;6.50;;
8574;SDS011;4325;42.520;27.448;2022-08-18T13:57:38;9.68;;;6.10;;
8574;SDS011;4325;42.520;27.448;2022-08-18T14:00:07;9.77;;;7.03;;
8574;SDS011;4325;42.520;27.448;2022-08-18T14:02:37;10.07;;;8.00;;
8574;SDS011;4325;42.520;27.448;2022-08-18T14:05:04;10.35;;;5.88;;
8574;SDS011;4325;42.520;27.448;2022-08-18T14:07:33;9.00;;;5.68;;
8574;SDS011;4325;42.520;27.448;2022-08-18T14:10:00;9.27;;;5.85;;
8574;SDS011;4325;42.520;27.448;2022-08-18T14:12:27;6.50;;;5.07;;
8574;SDS011;4325;42.520;27.448;2022-08-18T14:14:55;8.88;;;5.70;;
8574;SDS011;4325;42.520;27.448;2022-08-18T14:17:23;6.35;;;5.80;;
8574;SDS011;4325;42.520;27.448;2022-08-18T14:19:51;7.10;;;6.20;;
8574;SDS011;4325;42.520;27.448;2022-08-18T14:22:35;16.03;;;6.20;;
8574;SDS011;4325;42.520;27.448;2022-08-18T14:25:20;7.17;;;6.10;;
8574;SDS011;4325;42.520;27.448;2022-08-18T14:28:04;11.53;;;6.80;;
8574;SDS011;4325;42.520;27.448;2022-08-18T14:30:34;10.73;;;6.27;;
8574;SDS011;4325;42.520;27.448;2022-08-18T14:33:04;9.20;;;6.30;;
8574;SDS011;4325;42.520;27.448;2022-08-18T14:35:31;6.40;;;5.73;;
8574;SDS011;4325;42.520;27.448;2022-08-18T14:37:59;8.73;;;6.70;;
8574;SDS011;4325;42.520;27.448;2022-08-18T14:40:26;7.37;;;6.67;;
8574;SDS011;4325;42.520;27.448;2022-08-18T14:42:53;7.27;;;6.33;;
8574;SDS011;4325;42.520;27.448;2022-08-18T14:45:20;9.20;;;6.50;;
8574;SDS011;4325;42.520;27.448;2022-08-18T14:47:48;8.70;;;7.93;;
8574;SDS011;4325;42.520;27.448;2022-08-18T14:50:18;13.87;;;8.63;;
8574;SDS011;4325;42.520;27.448;2022-08-18T14:52:46;16.83;;;8.77;;
8574;SDS011;4325;42.520;27.448;2022-08-18T14:55:14;10.90;;;6.53;;
8574;SDS011;4325;42.520;27.448;2022-08-18T14:57:43;12.33;;;7.27;;
8574;SDS011;4325;42.520;27.448;2022-08-18T15:00:12;8.03;;;7.10;;
8574;SDS011;4325;42.520;27.448;2022-08-18T15:02:41;9.73;;;7.13;;
8574;SDS011;4325;42.520;27.448;2022-08-18T15:05:10;10.53;;;7.57;;
8574;SDS011;4325;42.520;27.448;2022-08-18T15:07:38;7.87;;;6.30;;
8574;SDS011;4325;42.520;27.448;2022-08-18T15:10:05;12.03;;;7.50;;
8574;SDS011;4325;42.520;27.448;2022-08-18T15:12:34;7.60;;;6.80;;
8574;SDS011;4325;42.520;27.448;2022-08-18T15:15:02;8.57;;;7.03;;
8574;SDS011;4325;42.520;27.448;2022-08-18T15:17:30;8.53;;;7.27;;
8574;SDS011;4325;42.520;27.448;2022-08-18T15:19:57;7.83;;;7.13;;
8574;SDS011;4325;42.520;27.448;2022-08-18T15:22:25;11.90;;;7.60;;
8574;SDS011;4325;42.520;27.448;2022-08-18T15:25:10;8.10;;;7.17;;
8574;SDS011;4325;42.520;27.448;2022-08-18T15:27:54;13.23;;;6.77;;
8574;SDS011;4325;42.520;27.448;2022-08-18T15:30:23;9.80;;;6.57;;
8574;SDS011;4325;42.520;27.448;2022-08-18T15:32:50;8.50;;;6.97;;
8574;SDS011;4325;42.520;27.448;2022-08-18T15:35:17;8.80;;;6.73;;
8574;SDS011;4325;42.520;27.448;2022-08-18T15:37:47;9.33;;;6.67;;
8574;SDS011;4325;42.520;27.448;2022-08-18T15:40:15;9.93;;;6.93;;
8574;SDS011;4325;42.520;27.448;2022-08-18T15:42:49;7.97;;;6.50;;
8574;SDS011;4325;42.520;27.448;2022-08-18T15:45:17;10.07;;;6.87;;
8574;SDS011;4325;42.520;27.448;2022-08-18T15:47:46;9.07;;;7.23;;
8574;SDS011;4325;42.520;27.448;2022-08-18T15:50:13;11.20;;;6.80;;
8574;SDS011;4325;42.520;27.448;2022-08-18T15:52:47;8.57;;;7.43;;
8574;SDS011;4325;42.520;27.448;2022-08-18T15:55:15;10.20;;;7.47;;
8574;SDS011;4325;42.520;27.448;2022-08-18T15:57:42;14.23;;;7.40;;
8574;SDS011;4325;42.520;27.448;2022-08-18T16:00:10;11.67;;;10.47;;
8574;SDS011;4325;42.520;27.448;2022-08-18T16:02:41;12.07;;;8.27;;